Vesborg, Denmark

6:47 AM CEST on September 30, 2016 (GMT +0200)
Birkevej | | Change Station

Elev 0 ft 55.57 °N, 10.45 °E | Updated 5 minutes ago

Partly Cloudy
Partly Cloudy
49.8 °F
Feels Like 47 °F
N
6.8
Wind Variable Wind from SW
Gusts 12.4 mph

Today
High -- | Low -- °F
--% Chance of Precip.
Yesterday
High -- | Low -- °F
Precip. -- in
Pressure 29.65 in
Visibility 6.2 miles
Clouds Few 4700 ft
Windchill 47 °F
Dew Point 50 °F
Humidity 100%
Rainfall 0.00 in
Snow Depth Not available.
7:19 AM 6:54 PM
Waning Crescent, 1% visible
METAR EKAH 300420Z AUTO 25009KT 200V280 9999NDV FEW047/// 11/07 Q1004
Pressure 29.65 in
Visibility 6.2 miles
Clouds Few 4700 ft
Windchill 47 °F
Dew Point 50 °F
Humidity 100%
Rainfall 0.00 in
Snow Depth Not available.
7:19 AM 6:54 PM
Waning Crescent, 1% visible
METAR EKAH 300420Z AUTO 25009KT 200V280 9999NDV FEW047/// 11/07 Q1004

10-Day Weather Forecast

×

Almanac

Astronomy

Sep. 30, 2016 Rise Set
Actual Time
Civil Twilight
Nautical Twilight
Astronomical Twilight
Moon
Length of Visible Light
Length of Day
Tomorrow will be .
, % of the Moon is Illuminated

Today's Extremes

Country Highs Country Lows

Community

WunderPhotos

Upload Photos

1,942,665 photos uploaded!

WunderBlog® & News

Nearby

Air Quality

  Air Quality AQ Index Pollutant
Not available.

Snow Depth

Station Depth Elevation

Earthquake Activity

City Distance Mag. Time & Date
Minimum magnitude displayed is 2.5.

Coastal Water Temperatures

Place Temperature

Stations

Nearby Weather Stations

Station Location Temp. Windchill Dew Point Humidity Wind Precip. Elev Updated Type